createdAt,value
2022-11-29T00:01:17.157Z,48.23
2022-11-29T00:03:45.323Z,55.27
2022-11-29T00:06:14.487Z,51.87
2022-11-29T00:08:44.222Z,46.10
2022-11-29T00:11:13.315Z,50.93
2022-11-29T00:13:41.510Z,47.07
2022-11-29T00:16:10.741Z,50.17
2022-11-29T00:18:39.064Z,46.17
2022-11-29T00:21:07.803Z,49.33
2022-11-29T00:23:36.043Z,48.20
2022-11-29T00:26:06.308Z,53.53
2022-11-29T00:28:34.558Z,50.80
2022-11-29T00:31:02.849Z,51.53
2022-11-29T00:33:30.946Z,52.70
2022-11-29T00:36:02.469Z,51.80
2022-11-29T00:38:30.612Z,51.53
2022-11-29T00:40:58.671Z,51.00
2022-11-29T00:43:28.148Z,50.63
2022-11-29T00:45:56.235Z,50.07
2022-11-29T00:48:24.447Z,58.07
2022-11-29T00:50:52.528Z,52.67
2022-11-29T00:53:20.621Z,49.77
2022-11-29T00:55:49.196Z,54.77
2022-11-29T00:58:17.252Z,49.33
2022-11-29T01:00:47.713Z,49.57
2022-11-29T01:03:16.580Z,51.30
2022-11-29T01:05:44.726Z,50.43
2022-11-29T01:08:13.449Z,51.00
2022-11-29T01:10:41.566Z,46.60
2022-11-29T01:13:10.039Z,50.13
2022-11-29T01:15:38.132Z,50.87
2022-11-29T01:18:07.634Z,49.60
2022-11-29T01:20:35.686Z,53.80
2022-11-29T01:23:03.845Z,51.70
2022-11-29T01:25:32.317Z,48.80
2022-11-29T01:28:00.345Z,48.37
2022-11-29T01:30:28.470Z,54.80
2022-11-29T01:32:56.587Z,46.57
2022-11-29T01:35:25.978Z,50.23
2022-11-29T01:37:54.162Z,49.70
2022-11-29T01:40:22.224Z,50.83
2022-11-29T01:42:50.306Z,52.10
2022-11-29T01:45:23.295Z,51.47
2022-11-29T01:47:51.620Z,49.13
2022-11-29T01:50:19.722Z,55.83
2022-11-29T01:52:49.138Z,50.20
2022-11-29T01:55:17.183Z,47.97
2022-11-29T01:57:45.708Z,48.13
2022-11-29T02:00:15.619Z,50.27
2022-11-29T02:02:44.643Z,50.07
2022-11-29T02:05:13.638Z,52.67
2022-11-29T02:07:42.069Z,50.67
2022-11-29T02:10:11.895Z,47.50
2022-11-29T02:12:45.226Z,51.70
2022-11-29T02:15:24.365Z,52.80
2022-11-29T02:18:02.683Z,49.00
2022-11-29T02:21:12.361Z,50.40
2022-11-29T02:24:27.344Z,46.77
2022-11-29T02:27:34.940Z,50.23
2022-11-29T02:30:11.047Z,44.77
2022-11-29T02:33:07.891Z,47.73
2022-11-29T02:35:45.342Z,48.63
2022-11-29T02:38:27.860Z,44.10
2022-11-29T02:41:02.346Z,46.60
2022-11-29T02:43:38.521Z,43.97
2022-11-29T02:46:17.412Z,51.93
2022-11-29T02:48:54.812Z,48.77
2022-11-29T02:51:25.546Z,48.10
2022-11-29T02:53:58.259Z,47.90
2022-11-29T02:56:28.556Z,44.53
2022-11-29T02:58:59.887Z,49.03
2022-11-29T03:01:30.537Z,51.57
2022-11-29T03:04:03.650Z,49.70
2022-11-29T03:06:35.253Z,49.13
2022-11-29T03:09:08.829Z,52.03
2022-11-29T03:11:42.061Z,48.73
2022-11-29T03:14:15.765Z,47.90
2022-11-29T03:16:47.089Z,49.20
2022-11-29T03:19:37.229Z,48.83
2022-11-29T03:22:11.761Z,46.00
2022-11-29T03:24:44.310Z,49.93
2022-11-29T03:27:14.323Z,46.87
2022-11-29T03:29:45.787Z,48.67
2022-11-29T03:32:16.182Z,46.60
2022-11-29T03:34:57.098Z,47.93
2022-11-29T03:37:28.835Z,48.57
2022-11-29T03:40:00.434Z,48.83
2022-11-29T03:42:32.615Z,53.97
2022-11-29T03:45:04.063Z,51.63
2022-11-29T03:47:33.414Z,44.83
2022-11-29T03:50:05.454Z,46.83
2022-11-29T03:52:35.158Z,46.10
2022-11-29T03:55:10.888Z,47.83
2022-11-29T03:57:41.975Z,42.67
2022-11-29T04:00:12.697Z,47.07
2022-11-29T04:03:07.200Z,45.53
2022-11-29T04:06:26.923Z,47.23
2022-11-29T04:09:12.059Z,45.23
2022-11-29T04:11:59.268Z,47.87
2022-11-29T04:14:50.729Z,43.97
2022-11-29T04:18:06.361Z,48.33
2022-11-29T04:21:11.451Z,43.37
2022-11-29T04:24:04.904Z,49.37
2022-11-29T04:26:58.893Z,46.50
2022-11-29T04:29:45.597Z,44.50
2022-11-29T04:32:23.324Z,51.17
2022-11-29T04:35:07.966Z,44.87
2022-11-29T04:37:58.639Z,48.10
2022-11-29T04:40:37.917Z,48.10
2022-11-29T04:43:26.122Z,45.67
2022-11-29T04:46:07.514Z,43.57
2022-11-29T04:48:58.408Z,42.93
2022-11-29T04:51:33.028Z,46.17
2022-11-29T04:54:06.322Z,45.30
2022-11-29T04:56:37.532Z,46.77
2022-11-29T04:59:08.658Z,48.40
2022-11-29T05:01:42.450Z,45.13
2022-11-29T05:04:15.863Z,46.60
2022-11-29T05:06:46.935Z,46.57
2022-11-29T05:09:20.290Z,41.63
2022-11-29T05:11:55.050Z,45.37
2022-11-29T05:14:28.919Z,45.83
2022-11-29T05:17:02.542Z,42.20
2022-11-29T05:19:39.772Z,46.93
2022-11-29T05:22:14.687Z,45.13
2022-11-29T05:24:54.126Z,48.37
2022-11-29T05:27:27.932Z,48.83
2022-11-29T05:29:57.953Z,47.80
2022-11-29T05:32:29.663Z,52.30
2022-11-29T05:35:34.405Z,47.60
2022-11-29T05:38:05.443Z,47.03
2022-11-29T05:40:50.388Z,45.33
2022-11-29T05:43:33.504Z,49.63
2022-11-29T05:46:04.462Z,49.73
2022-11-29T05:48:35.924Z,46.73
2022-11-29T05:51:12.077Z,48.33
2022-11-29T05:53:44.334Z,48.93
2022-11-29T05:56:16.490Z,47.23
2022-11-29T05:58:47.844Z,47.03
2022-11-29T06:01:19.725Z,49.67
2022-11-29T06:03:54.540Z,47.40
2022-11-29T06:06:27.364Z,47.23
2022-11-29T06:08:58.165Z,51.20
2022-11-29T06:11:29.712Z,52.67
2022-11-29T06:14:05.599Z,52.07
2022-11-29T06:16:48.141Z,50.27
2022-11-29T06:19:35.116Z,47.07
2022-11-29T06:22:10.097Z,51.73
2022-11-29T06:24:56.347Z,55.73
2022-11-29T06:27:42.539Z,53.60
2022-11-29T06:30:12.214Z,52.33
2022-11-29T06:32:44.149Z,53.97
2022-11-29T06:35:16.545Z,51.70
2022-11-29T06:37:46.294Z,54.17
2022-11-29T06:40:15.921Z,51.10
2022-11-29T06:42:45.417Z,48.73
2022-11-29T06:45:14.694Z,51.20
2022-11-29T06:47:45.029Z,51.47
2022-11-29T06:50:23.935Z,54.37
2022-11-29T06:52:55.133Z,49.13
2022-11-29T06:55:25.571Z,50.43
2022-11-29T06:58:02.168Z,50.43
2022-11-29T07:00:34.421Z,54.93
2022-11-29T07:03:21.157Z,51.67
2022-11-29T07:05:49.784Z,52.70
2022-11-29T07:08:20.036Z,57.60
2022-11-29T07:10:50.211Z,57.37
2022-11-29T07:13:20.189Z,61.50
2022-11-29T07:15:52.823Z,61.30
2022-11-29T07:18:24.626Z,54.70
2022-11-29T07:20:57.725Z,61.67
2022-11-29T07:23:30.112Z,56.27
2022-11-29T07:26:03.704Z,63.13
2022-11-29T07:28:43.301Z,64.37
2022-11-29T07:31:13.561Z,61.90
2022-11-29T07:33:45.862Z,63.87
2022-11-29T07:36:17.648Z,61.67
2022-11-29T07:39:01.349Z,60.27
2022-11-29T07:41:31.360Z,62.10
2022-11-29T07:44:05.842Z,62.97
2022-11-29T07:46:33.957Z,60.57
2022-11-29T07:49:02.099Z,66.27
2022-11-29T07:51:30.146Z,64.80
2022-11-29T07:53:58.338Z,61.93
2022-11-29T07:56:26.357Z,67.83
2022-11-29T07:58:54.673Z,67.27
2022-11-29T08:01:24.151Z,65.37
2022-11-29T08:03:52.259Z,65.73
2022-11-29T08:06:25.656Z,69.03
2022-11-29T08:08:53.714Z,69.90
2022-11-29T08:11:21.758Z,69.20
2022-11-29T08:13:49.832Z,70.33
2022-11-29T08:16:18.698Z,69.80
2022-11-29T08:18:48.469Z,67.47
2022-11-29T08:21:18.281Z,69.30
2022-11-29T08:23:46.424Z,69.03
2022-11-29T08:26:14.508Z,69.30
2022-11-29T08:28:42.572Z,64.33
2022-11-29T08:31:11.910Z,62.90
2022-11-29T08:33:40.606Z,68.67
2022-11-29T08:36:11.321Z,63.33
2022-11-29T08:38:39.458Z,64.77
2022-11-29T08:41:08.853Z,68.80
2022-11-29T08:43:36.961Z,62.93
2022-11-29T08:46:05.138Z,64.47
2022-11-29T08:48:33.250Z,65.77
2022-11-29T08:51:01.290Z,65.87
2022-11-29T08:53:42.134Z,64.03
2022-11-29T08:56:41.626Z,69.03
2022-11-29T08:58:58.766Z,65.83
2022-11-29T09:01:26.832Z,66.47
2022-11-29T09:04:02.558Z,70.03
2022-11-29T09:06:31.446Z,67.83
2022-11-29T09:09:01.237Z,70.23
2022-11-29T09:11:29.887Z,70.20
2022-11-29T09:13:58.665Z,67.97
2022-11-29T09:16:27.948Z,63.23
2022-11-29T09:18:56.219Z,68.60
2022-11-29T09:21:24.980Z,67.17
2022-11-29T09:23:58.534Z,65.37
2022-11-29T09:26:29.327Z,62.67
2022-11-29T09:28:57.998Z,67.73
2022-11-29T09:31:27.291Z,59.17
2022-11-29T09:33:55.752Z,59.00
2022-11-29T09:36:28.066Z,54.97
2022-11-29T09:38:57.107Z,52.87
2022-11-29T09:41:45.569Z,53.73
2022-11-29T09:44:18.123Z,56.07
2022-11-29T09:46:58.596Z,56.47
2022-11-29T09:49:44.618Z,56.27
2022-11-29T09:52:15.321Z,54.67
2022-11-29T09:54:47.049Z,54.17
2022-11-29T09:57:17.560Z,49.00
2022-11-29T09:59:47.291Z,51.77
2022-11-29T10:02:21.303Z,54.53
2022-11-29T10:04:51.409Z,50.83
2022-11-29T10:07:21.805Z,53.90
2022-11-29T10:09:51.526Z,50.60
2022-11-29T10:12:23.477Z,48.40
2022-11-29T10:14:53.245Z,50.27
2022-11-29T10:17:27.806Z,49.40
2022-11-29T10:19:57.318Z,46.10
2022-11-29T10:22:28.772Z,49.23
2022-11-29T10:25:00.958Z,44.33
2022-11-29T10:27:30.796Z,44.10
2022-11-29T10:30:01.039Z,39.23
2022-11-29T10:32:30.966Z,41.57
2022-11-29T10:35:00.858Z,40.90
2022-11-29T10:37:32.682Z,39.73
2022-11-29T10:40:04.304Z,40.27
2022-11-29T10:42:53.252Z,39.33
2022-11-29T10:45:27.584Z,40.87
2022-11-29T10:47:56.472Z,44.50
2022-11-29T10:50:25.960Z,38.77
2022-11-29T10:52:59.879Z,41.13
2022-11-29T10:55:28.291Z,44.10
2022-11-29T10:58:15.255Z,41.80
2022-11-29T11:00:54.655Z,39.63
2022-11-29T11:03:34.675Z,41.57
2022-11-29T11:06:05.573Z,41.50
2022-11-29T11:08:34.093Z,39.30
2022-11-29T11:11:04.520Z,41.37
2022-11-29T11:13:34.086Z,40.80
2022-11-29T11:16:10.383Z,42.70
2022-11-29T11:18:38.726Z,45.07
2022-11-29T11:21:09.407Z,39.83
2022-11-29T11:23:42.602Z,39.47
2022-11-29T11:26:12.303Z,39.80
2022-11-29T11:28:43.820Z,38.27
2022-11-29T11:31:12.385Z,35.40
2022-11-29T11:33:40.780Z,36.17
2022-11-29T11:36:11.366Z,36.27
2022-11-29T11:38:40.213Z,34.40
2022-11-29T11:41:17.678Z,37.07
2022-11-29T11:43:52.300Z,35.03
2022-11-29T11:46:20.491Z,39.00
2022-11-29T11:48:48.590Z,39.13
2022-11-29T11:51:22.597Z,32.43
2022-11-29T11:53:52.465Z,33.77
2022-11-29T11:56:20.561Z,34.03
2022-11-29T11:58:50.861Z,36.20
2022-11-29T12:01:27.279Z,32.70
2022-11-29T12:04:01.996Z,33.73
2022-11-29T12:06:41.054Z,32.20
2022-11-29T12:09:18.717Z,34.00
2022-11-29T12:11:50.221Z,31.10
2022-11-29T12:14:23.665Z,32.07
2022-11-29T12:16:54.409Z,30.77
2022-11-29T12:19:24.256Z,32.67
2022-11-29T12:21:54.364Z,31.60
2022-11-29T12:24:24.879Z,30.53
2022-11-29T12:26:57.947Z,30.70
2022-11-29T12:29:27.106Z,28.77
2022-11-29T12:32:02.400Z,31.13
2022-11-29T12:34:42.375Z,31.60
2022-11-29T12:37:14.274Z,37.20
2022-11-29T12:39:50.675Z,35.00
2022-11-29T12:42:24.288Z,33.10
2022-11-29T12:44:57.159Z,40.07
2022-11-29T12:47:36.564Z,37.33
2022-11-29T12:50:11.705Z,34.93
2022-11-29T12:52:44.539Z,33.40
2022-11-29T12:55:19.677Z,39.37
2022-11-29T12:57:51.492Z,40.30
2022-11-29T13:00:19.924Z,41.00
2022-11-29T13:03:03.185Z,39.37
2022-11-29T13:05:42.825Z,38.07
2022-11-29T13:08:43.399Z,37.87
2022-11-29T13:11:13.188Z,41.23
2022-11-29T13:13:41.924Z,41.63
2022-11-29T13:16:21.317Z,41.80
2022-11-29T13:18:55.176Z,36.37
2022-11-29T13:21:25.479Z,41.87
2022-11-29T13:24:10.647Z,34.93
2022-11-29T13:26:39.456Z,34.10
2022-11-29T13:29:07.526Z,36.23
2022-11-29T13:31:35.621Z,36.13
2022-11-29T13:34:07.210Z,36.20
2022-11-29T13:36:45.449Z,36.73
2022-11-29T13:39:19.295Z,36.87
2022-11-29T13:41:49.173Z,36.23
2022-11-29T13:44:20.766Z,40.53
2022-11-29T13:46:53.226Z,36.80
2022-11-29T13:49:23.928Z,38.07
2022-11-29T13:52:04.837Z,37.97
2022-11-29T13:54:33.737Z,36.40
2022-11-29T13:57:05.392Z,37.27
2022-11-29T13:59:34.509Z,35.17
2022-11-29T14:02:02.892Z,35.43
2022-11-29T14:04:34.427Z,36.40
2022-11-29T14:07:11.695Z,37.07
2022-11-29T14:09:49.583Z,38.40
2022-11-29T14:12:36.856Z,36.40
2022-11-29T14:15:20.021Z,35.23
2022-11-29T14:17:58.366Z,31.43
2022-11-29T14:20:59.095Z,34.50
2022-11-29T14:23:41.392Z,33.80
2022-11-29T14:26:28.965Z,36.73
2022-11-29T14:28:57.886Z,33.83
2022-11-29T14:31:54.572Z,37.83
2022-11-29T14:34:34.325Z,35.60
2022-11-29T14:37:16.226Z,37.30
2022-11-29T14:39:45.280Z,36.07
2022-11-29T14:42:17.096Z,31.90
2022-11-29T14:44:46.384Z,37.30
2022-11-29T14:47:24.693Z,34.87
2022-11-29T14:49:54.101Z,34.83
2022-11-29T14:52:28.485Z,36.40
2022-11-29T14:55:02.094Z,34.93
2022-11-29T14:57:55.528Z,38.50
2022-11-29T15:00:24.927Z,36.47
2022-11-29T15:02:54.424Z,38.27
2022-11-29T15:05:24.476Z,38.47
2022-11-29T15:07:57.979Z,39.77
2022-11-29T15:10:28.346Z,36.73
2022-11-29T15:12:56.479Z,40.00
2022-11-29T15:15:38.819Z,38.97
2022-11-29T15:18:16.430Z,40.10
2022-11-29T15:21:00.759Z,41.07
2022-11-29T15:23:30.275Z,39.47
2022-11-29T15:26:01.277Z,44.83
2022-11-29T15:28:30.255Z,45.40
2022-11-29T15:31:03.027Z,49.17
2022-11-29T15:33:31.237Z,52.60
2022-11-29T15:36:05.630Z,51.47
2022-11-29T15:38:42.954Z,51.80
2022-11-29T15:41:20.261Z,53.37
2022-11-29T15:43:49.748Z,52.10
2022-11-29T15:46:21.012Z,56.23
2022-11-29T15:48:49.185Z,54.17
2022-11-29T15:51:21.123Z,51.60
2022-11-29T15:54:00.365Z,54.83
2022-11-29T15:56:41.324Z,57.27
2022-11-29T15:59:10.238Z,58.37
2022-11-29T16:01:38.337Z,58.80
2022-11-29T16:04:06.632Z,62.23
2022-11-29T16:06:39.607Z,69.73
2022-11-29T16:09:09.991Z,68.47
2022-11-29T16:11:38.107Z,68.70
2022-11-29T16:14:16.685Z,70.70
2022-11-29T16:16:45.398Z,80.20
2022-11-29T16:19:22.256Z,76.60
2022-11-29T16:22:04.080Z,74.60
2022-11-29T16:24:35.136Z,73.40
2022-11-29T16:27:03.735Z,81.93
2022-11-29T16:29:33.444Z,89.03
2022-11-29T16:32:01.854Z,80.93
2022-11-29T16:34:32.981Z,92.93
2022-11-29T16:37:02.566Z,87.73
2022-11-29T16:39:30.647Z,86.97
2022-11-29T16:42:18.290Z,86.50
2022-11-29T16:45:09.339Z,93.67
2022-11-29T16:47:48.877Z,94.47
2022-11-29T16:50:19.057Z,88.53
2022-11-29T16:52:49.754Z,92.10
2022-11-29T16:55:20.172Z,89.07
2022-11-29T16:57:49.694Z,77.30
2022-11-29T17:00:24.660Z,79.93
2022-11-29T17:02:52.701Z,69.57
2022-11-29T17:05:20.778Z,70.43
2022-11-29T17:07:48.967Z,69.13
2022-11-29T17:10:18.918Z,68.67
2022-11-29T17:12:48.407Z,61.87
2022-11-29T17:15:18.073Z,63.47
2022-11-29T17:17:46.131Z,58.17
2022-11-29T17:20:14.435Z,57.00
2022-11-29T17:22:42.503Z,54.73
2022-11-29T17:25:11.089Z,60.17
2022-11-29T17:27:39.281Z,55.70
2022-11-29T17:30:08.442Z,52.30
2022-11-29T17:32:38.395Z,50.13
2022-11-29T17:35:07.233Z,50.67
2022-11-29T17:37:35.574Z,52.87
2022-11-29T17:40:03.683Z,50.30
2022-11-29T17:42:31.776Z,50.97
2022-11-29T17:44:59.850Z,48.00
2022-11-29T17:47:28.013Z,52.03
2022-11-29T17:49:58.132Z,56.87
2022-11-29T17:52:26.342Z,61.90
2022-11-29T17:54:54.413Z,62.37
2022-11-29T17:57:22.543Z,63.47
2022-11-29T17:59:50.642Z,54.17
2022-11-29T18:02:18.763Z,56.93
2022-11-29T18:04:46.981Z,58.10
2022-11-29T18:07:17.306Z,58.63
2022-11-29T18:09:46.856Z,55.87
2022-11-29T18:12:15.542Z,53.77
2022-11-29T18:14:43.613Z,64.13
2022-11-29T18:17:11.789Z,57.43
2022-11-29T18:19:39.898Z,53.87
2022-11-29T18:22:08.489Z,54.93
2022-11-29T18:24:37.958Z,53.40
2022-11-29T18:27:06.191Z,53.73
2022-11-29T18:29:45.606Z,53.13
2022-11-29T18:32:13.789Z,51.67
2022-11-29T18:34:41.906Z,59.47
2022-11-29T18:37:16.023Z,58.40
2022-11-29T18:39:50.125Z,62.23
2022-11-29T18:42:18.301Z,60.80
2022-11-29T18:44:46.627Z,65.07
2022-11-29T18:47:14.939Z,63.73
2022-11-29T18:49:43.012Z,71.00
2022-11-29T18:52:11.422Z,67.43
2022-11-29T18:54:39.483Z,68.83
2022-11-29T18:57:09.100Z,65.63
2022-11-29T18:59:37.204Z,66.37
2022-11-29T19:02:05.503Z,71.83
2022-11-29T19:04:33.645Z,72.50
2022-11-29T19:07:01.810Z,78.00
2022-11-29T19:09:29.893Z,73.90
2022-11-29T19:11:58.003Z,70.97
2022-11-29T19:14:27.566Z,70.17
2022-11-29T19:16:55.630Z,69.97
2022-11-29T19:19:24.170Z,74.10
2022-11-29T19:21:52.233Z,69.63
2022-11-29T19:24:20.427Z,69.80
2022-11-29T19:26:48.962Z,64.17
2022-11-29T19:29:17.232Z,72.77
2022-11-29T19:31:46.685Z,71.10
2022-11-29T19:34:14.768Z,70.27
2022-11-29T19:36:44.547Z,70.23
2022-11-29T19:39:13.379Z,67.00
2022-11-29T19:41:41.452Z,77.90
2022-11-29T19:44:09.696Z,73.57
2022-11-29T19:46:38.695Z,70.30
2022-11-29T19:49:08.546Z,74.00
2022-11-29T19:51:36.905Z,76.13
2022-11-29T19:54:06.012Z,81.73
2022-11-29T19:56:34.163Z,67.00
2022-11-29T19:59:02.577Z,74.30
2022-11-29T20:01:39.349Z,71.83
2022-11-29T20:04:10.486Z,81.80
2022-11-29T20:06:38.616Z,78.10
2022-11-29T20:09:07.544Z,82.63
2022-11-29T20:11:35.692Z,138.97
2022-11-29T20:14:04.292Z,114.00
2022-11-29T20:16:32.444Z,88.93
2022-11-29T20:19:01.746Z,67.63
2022-11-29T20:21:31.825Z,82.37
2022-11-29T20:24:00.886Z,119.17
2022-11-29T20:26:29.241Z,87.60
2022-11-29T20:28:57.522Z,111.73
2022-11-29T20:31:25.736Z,154.93
2022-11-29T20:33:54.690Z,89.27
2022-11-29T20:36:37.740Z,92.67
2022-11-29T20:39:11.975Z,100.67
2022-11-29T20:41:42.938Z,81.07
2022-11-29T20:44:12.033Z,108.53
2022-11-29T20:46:40.424Z,86.97
2022-11-29T20:49:09.817Z,92.13
2022-11-29T20:51:43.448Z,87.40
2022-11-29T20:54:11.710Z,115.67
2022-11-29T20:56:39.889Z,74.80
2022-11-29T20:59:08.112Z,91.00
2022-11-29T21:01:36.300Z,78.57
2022-11-29T21:04:04.501Z,109.53
2022-11-29T21:06:35.485Z,77.73
2022-11-29T21:09:05.132Z,71.93
2022-11-29T21:11:33.777Z,78.13
2022-11-29T21:14:03.938Z,86.73
2022-11-29T21:16:32.827Z,75.30
2022-11-29T21:19:02.047Z,78.37
2022-11-29T21:21:31.736Z,111.83
2022-11-29T21:24:06.853Z,90.63
2022-11-29T21:26:41.341Z,96.77
2022-11-29T21:29:15.855Z,109.43
2022-11-29T21:31:44.513Z,97.23
2022-11-29T21:34:12.763Z,124.00
2022-11-29T21:36:40.950Z,81.47
2022-11-29T21:39:12.555Z,109.57
2022-11-29T21:41:40.711Z,86.57
2022-11-29T21:44:09.100Z,128.77
2022-11-29T21:46:37.385Z,93.67
2022-11-29T21:49:05.768Z,78.37
2022-11-29T21:51:33.953Z,87.50
2022-11-29T21:54:02.877Z,71.30
2022-11-29T21:56:32.456Z,85.40
2022-11-29T21:59:00.597Z,75.77
2022-11-29T22:01:29.520Z,92.73
2022-11-29T22:03:57.798Z,107.33
2022-11-29T22:06:26.415Z,92.50
2022-11-29T22:08:54.616Z,82.70
2022-11-29T22:11:31.942Z,89.00
2022-11-29T22:14:18.332Z,98.67
2022-11-29T22:16:47.974Z,85.97
2022-11-29T22:19:16.782Z,107.70
2022-11-29T22:21:46.869Z,88.47
2022-11-29T22:24:15.501Z,76.33
2022-11-29T22:26:43.793Z,95.57
2022-11-29T22:29:14.159Z,74.03
2022-11-29T22:31:42.582Z,67.07
2022-11-29T22:34:10.830Z,91.90
2022-11-29T22:36:39.165Z,70.17
2022-11-29T22:39:07.503Z,82.67
2022-11-29T22:41:36.085Z,91.17
2022-11-29T22:44:04.244Z,88.17
2022-11-29T22:46:35.460Z,77.40
2022-11-29T22:49:03.605Z,80.57
2022-11-29T22:51:32.446Z,101.97
2022-11-29T22:54:01.500Z,86.70
2022-11-29T22:56:30.408Z,83.70
2022-11-29T22:58:58.577Z,135.90
2022-11-29T23:01:27.271Z,73.57
2022-11-29T23:03:57.554Z,87.97
2022-11-29T23:06:26.231Z,73.73
2022-11-29T23:08:55.261Z,67.27
2022-11-29T23:11:25.344Z,66.90
2022-11-29T23:13:53.529Z,97.33
2022-11-29T23:16:22.707Z,91.63
2022-11-29T23:18:50.777Z,65.13
2022-11-29T23:21:21.402Z,70.57
2022-11-29T23:23:55.819Z,80.70
2022-11-29T23:26:25.487Z,73.57
2022-11-29T23:28:53.896Z,68.57
2022-11-29T23:31:22.085Z,77.53
2022-11-29T23:33:50.248Z,73.70
2022-11-29T23:36:20.578Z,70.43
2022-11-29T23:38:48.817Z,69.63
2022-11-29T23:41:16.861Z,75.73
2022-11-29T23:43:44.966Z,73.03
2022-11-29T23:46:14.500Z,75.97
2022-11-29T23:48:42.758Z,100.63
2022-11-29T23:51:10.942Z,84.00
2022-11-29T23:53:40.426Z,74.67
2022-11-29T23:56:10.984Z,91.57
2022-11-29T23:58:39.122Z,77.23
